• Join FlightAware (Why Join?)
  • Login
  • US Flag 
10:11AM EDT


 

Airport Tracker/Info


-or-


 

Live Flight TrackerFlight Track Log ✈ SWA1096 ✈ 18-Apr-2013 ✈ KBWI - KMHT

Flight Track Log - Related Links

Times and Time Zones

All times are in EDT time to prevent confusion due to time zone crossing. See the SWA1096 flight status page for this flight to view local times or setup timezone preferences in your user account.

Time Position Orientation Groundspeed Altitude Reporting Facility
EDT Latitude Longitude Course Direction KTS MPH feet Rate Location/Type
03:51PM 39.1333 -76.6333 128° Southeast 174 200 2,600  Level Potomac TRACON
03:52PM 39.1167 -76.5667 108° East 233 268 5,600 2,820 Climbing Potomac TRACON
03:53PM 39.1333 -76.4667 78° East 283 326 8,400 3,000 Climbing Potomac TRACON
03:55PM 39.1428 -76.2794 86° East 332 382 13,500 3,000 Climbing Washington Center
03:56PM 39.1600 -76.1592 80° East 361 415 16,400 2,760 Climbing Washington Center
03:57PM 39.1772 -76.0228 81° East 379 436 19,100 2,700 Climbing Washington Center
03:58PM 39.2006 -75.8836 78° East 389 448 21,900 2,640 Climbing Washington Center
03:59PM 39.2800 -75.7686 48° Northeast 397 457 24,400 2,280 Climbing Washington Center
04:00PM 39.3656 -75.6586 45° Northeast 410 472 26,500 2,040 Climbing Washington Center
04:01PM 39.4553 -75.5431 45° Northeast 433 498 28,500 1,860 Climbing Washington Center
04:02PM 39.5467 -75.4219 46° Northeast 451 519 30,300 2,100 Climbing Washington Center
04:03PM 39.6403 -75.3033 44° Northeast 457 526 32,800 2,340 Climbing Washington Center
04:04PM 39.7233 -75.1842 48° Northeast 457 526 35,000 1,080 Climbing Washington Center
04:05PM 39.8061 -75.0622 49° Northeast 451 519 35,000  Level Washington Center
04:06PM 40.0306 -74.9675 18° North 477 549 35,000  Level New York Center
04:07PM 40.1547 -74.9342 12° North 463 533 35,000  Level New York Center
04:08PM 40.2789 -74.8981 13° North 451 519 35,000  Level New York Center
04:09PM 40.4017 -74.8456 18° North 456 525 35,000  Level New York Center
04:10PM 40.4989 -74.8022 19° North 456 525 35,000  Level New York Center
04:11PM 40.6300 -74.7469 18° North 456 525 35,000  Level New York Center
04:12PM 40.7506 -74.6936 19° North 451 519 35,000  Level New York Center
04:13PM 40.8711 -74.6403 18° North 451 519 35,000  Level New York Center
04:14PM 40.9917 -74.5867 19° North 451 519 35,000  Level New York Center
04:15PM 41.1164 -74.5303 19° North 451 519 35,000  Level New York Center
04:17PM 41.3553 -74.4339 17° North 444 511 35,000 -60 Level Boston Center
04:18PM 41.4750 -74.3794 19° North 444 511 34,900 -60 Descending Boston Center
04:19PM 41.5925 -74.3303 17° North 444 511 34,900 -540 Level Boston Center
04:20PM 41.7164 -74.2756 18° North 444 511 33,900 -900 Descending Boston Center
04:21PM 41.8236 -74.2286 18° North 449 517 33,100 -960 Descending Boston Center
04:22PM 41.9394 -74.1453 28° Northeast 449 517 32,100 -1,020 Descending Boston Center
04:23PM 42.0453 -74.0392 37° Northeast 458 527 31,200 -600 Descending Boston Center
04:24PM 42.1489 -73.9297 38° Northeast 471 542 31,000 -600 Descending Boston Center
04:25PM 42.2567 -73.8172 38° Northeast 478 550 30,000 -1,620 Descending Boston Center
04:26PM 42.3578 -73.7100 38° Northeast 478 550 27,800 -2,400 Descending Boston Center
04:27PM 42.4592 -73.6022 38° Northeast 466 536 25,200 -1,980 Descending Boston Center
04:28PM 42.5311 -73.4656 54° Northeast 440 506 24,000 -1,200 Descending Boston Center
04:29PM 42.5703 -73.2858 73° East 452 520 22,900 -1,020 Descending Boston Center
04:30PM 42.6025 -73.1508 72° East 427 491 22,000 -1,020 Descending Boston Center
04:31PM 42.6431 -72.9764 72° East 422 486 20,900 -1,080 Descending Boston Center
04:32PM 42.6686 -72.8214 77° East 422 486 19,900 -1,200 Descending Boston Center
04:33PM 42.6961 -72.6744 76° East 411 473 18,500 -1,800 Descending Boston Center
04:34PM 42.7214 -72.5278 77° East 398 458 16,500 -2,040 Descending Boston Center
04:35PM 42.7442 -72.3864 78° East 393 452 14,500 -1,980 Descending Boston Center
04:36PM 42.7692 -72.2450 76° East 388 447 12,600 -1,920 Descending Boston Center
04:37PM 42.7875 -72.1233 78° East 375 432 10,800 -1,620 Descending Boston Center
04:39PM 42.8500 -71.8833 70° East 320 368 8,100 -1,560 Descending KA90
04:40PM 42.9069 -71.7797 53° Northeast 310 357 6,100 -1,620 Descending Boston Center
04:41PM 42.9525 -71.6997 52° Northeast 304 350 4,600 -1,140 Descending Boston Center
04:42PM 42.9975 -71.6083 56° Northeast 275 316 3,900 -900 Descending Boston Center
04:43PM 43.0158 -71.5400 70° East 224 258 2,900 -1,140 Descending Boston Center
04:44PM 43.0069 -71.4806 102° East 153 176 1,700 -900 Descending Boston Center
04:45PM 42.9778 -71.4611 154° Southeast 128 147 1,200 3,660 Descending Boston Center
04:46PM 42.9419 -71.4389 156° South 128 147 9,000 3,780 Climbing Boston Center
04:47PM 42.9086 -71.4197 157° South 128 147 9,000  Level Boston Center
04:48PM 42.8728 -71.3975 156° South 128 147 9,000  Level Boston Center
04:49PM 42.8353 -71.3783 159° South 128 147 9,000  Level Boston Center
04:50PM 42.7994 -71.3564 156° South 128 147 9,000  Level Boston Center
04:52PM 42.9157 -71.4320 316° Northwest  Level FlightAware Approximate
04:59PM 42.9167 -71.4333 316° Northwest  Level FlightAware Approximate
05:00PM 42.9328 -71.4358 316° Northwest  Level Estimated
05:01PM 42.9328 -71.4358 316° Northwest  Level Estimated
05:02PM 42.9328 -71.4358 316° Northwest  Level Estimated
05:03PM 42.9328 -71.4358 316° Northwest  Level Estimated
05:04PM 42.9328 -71.4358 316° Northwest  Level Estimated